This is the latest recevied weather packets stored in our database for station/object CE3UOB-10. If no packets are shown the sender has not sent any weather packets the latest 10 day(s).
| Time | Temp. | Humidity | Pressure | Rain* | Wind** | Luminosity | Snow |
|---|---|---|---|---|---|---|---|
| 1778031498 | 16.11° C | 65% | 994.6 hPa | - | - | - | - |
| 1778029704 | 15.56° C | 66% | 993.8 hPa | - | - | - | - |
| 1778029697 | 15.56° C | 66% | 993.8 hPa | - | - | - | - |
| 1778027904 | 16.11° C | 66% | 994.7 hPa | - | - | - | - |
| 1778027897 | 16.11° C | 66% | 994.7 hPa | - | - | - | - |
| 1778026104 | 16.67° C | 65% | 994.8 hPa | - | - | - | - |
| 1778026097 | 16.67° C | 65% | 994.8 hPa | - | - | - | - |
| 1778024304 | 16.67° C | 64% | 994.1 hPa | - | - | - | - |
| 1778024297 | 16.67° C | 64% | 994.1 hPa | - | - | - | - |
| 1778022504 | 16.67° C | 64% | 993.4 hPa | - | - | - | - |
| 1778022497 | 16.67° C | 64% | 993.4 hPa | - | - | - | - |
| 1778020705 | 16.67° C | 61% | 993.1 hPa | - | - | - | - |
| 1778020696 | 16.67° C | 61% | 993.1 hPa | - | - | - | - |
| 1777996309 | 16.11° C | 56% | 990.8 hPa | - | - | - | - |
| 1777994509 | 15.56° C | 55% | 991.2 hPa | - | - | - | - |
| 1777994509 | 15.56° C | 55% | 991.2 hPa | - | - | - | - |
| 1777992708 | 15.56° C | 57% | 991.5 hPa | - | - | - | - |
| 1777992704 | 15.56° C | 57% | 991.5 hPa | - | - | - | - |
| 1777990913 | 15° C | 60% | 991.8 hPa | - | - | - | - |
| 1777990903 | 15° C | 60% | 991.8 hPa | - | - | - | - |
| 1777989111 | 13.89° C | 66% | 992.2 hPa | - | - | - | - |
| 1777989105 | 13.89° C | 66% | 992.2 hPa | - | - | - | - |
| 1777987311 | 13.33° C | 65% | 992.5 hPa | - | - | - | - |
| 1777987305 | 13.33° C | 65% | 992.5 hPa | - | - | - | - |
| 1777985511 | 12.78° C | 65% | 993.2 hPa | - | - | - | - |
* Rain since midnight (hover to see other rain measurements)
** Current wind speed in m/s (hover to see current wind gust speed)